M I D A S
Marine Information and Data Acquisition System
Tripno 1036 of the Zeeleeuw from 2006-02-24 09:06:28 to 2006-02-24 12:00:59
Back to CruiseResearch ActivitiesStationsMapUnderway DataData graphs

EquipmentUnitsComment
TimeDGPSUTC
LatitudeDGPSDM.mWGS84
LongitudeDGPSDM.mWGS84
HeadingGyrodeg 
SOGDGPSknotsSpeed over ground
COGDGPSdegCourse over ground
DepthEcho soundermeters200 kHz
Missing or incorrect values are displayed as -999
Navigation data collected by the RV Zeeleeuw from 2006-02-24 07:40:43 to 2006-02-24 12:14:37
Time Latitude Longitude Heading SOG COG Depth
2006-02-24 07:41:48 51°13.611 2°56.042 118.2 3.6 294 -999
2006-02-24 07:42:49 51°13.644 2°55.926 119.6 5.3 295 -999
2006-02-24 07:43:48 51°13.68 2°55.803 114 4.3 293 -999
2006-02-24 07:44:49 51°13.695 2°55.744 84.2 0.4 10 -999
2006-02-24 07:45:48 51°13.701 2°55.733 38.2 1.3 10 -999
2006-02-24 07:46:48 51°13.746 2°55.709 333.2 4.1 325 -999
2006-02-24 07:47:48 51°13.825 2°55.637 338.9 6.2 334 -999
2006-02-24 07:48:49 51°13.929 2°55.564 342.5 7 337 -999
2006-02-24 07:49:48 51°14.039 2°55.488 341.1 7.7 336 -999
2006-02-24 07:50:48 51°14.157 2°55.398 337 7.9 331 -999
2006-02-24 07:51:48 51°14.258 2°55.264 318.3 8 312 -999
2006-02-24 07:52:48 51°14.341 2°55.098 312.8 8 306 -999
2006-02-24 07:53:48 51°14.418 2°54.909 291.9 9 290 -999
2006-02-24 07:54:48 51°14.435 2°54.629 272.9 11.9 267 11.9
2006-02-24 07:55:48 51°14.375 2°54.328 248.2 12.1 242 11
2006-02-24 07:56:48 51°14.271 2°54.051 244.7 12.2 242 10.8
2006-02-24 07:57:48 51°14.172 2°53.774 243.1 12 239 11
2006-02-24 07:58:48 51°14.067 2°53.499 242.3 12.1 238 11
2006-02-24 07:59:48 51°13.964 2°53.222 243.5 12.1 239 11.3
2006-02-24 08:00:48 51°13.863 2°52.939 243.7 12.3 239 11.6
2006-02-24 08:01:48 51°13.764 2°52.656 244.5 12.4 244 11.9
2006-02-24 08:02:48 51°13.665 2°52.371 247.2 12.2 243 11.9
2006-02-24 08:03:48 51°13.562 2°52.089 243.4 12.3 243 12.2
2006-02-24 08:04:48 51°13.459 2°51.81 245.7 12.1 241 12.2
2006-02-24 08:05:48 51°13.355 2°51.533 244.4 12.2 237 12.2
2006-02-24 08:06:48 51°13.251 2°51.253 243.4 12.4 240 12.2
2006-02-24 08:07:48 51°13.149 2°50.972 243.2 12.2 239 12.4
2006-02-24 08:08:48 51°13.044 2°50.694 243.1 12.3 241 12.4
2006-02-24 08:09:48 51°12.942 2°50.413 244.3 12.2 240 12.5
2006-02-24 08:10:48 51°12.842 2°50.13 245.8 12.3 239 12.7
2006-02-24 08:11:48 51°12.747 2°49.841 244.7 12.1 237 12.8
2006-02-24 08:12:48 51°12.653 2°49.552 247.8 12.3 242 12.9
2006-02-24 08:13:48 51°12.558 2°49.265 245.3 12.1 244 13.1
2006-02-24 08:14:48 51°12.462 2°48.983 245.4 12.1 240 13.1
2006-02-24 08:15:48 51°12.368 2°48.696 245.9 12.4 241 13.2
2006-02-24 08:16:48 51°12.273 2°48.411 245.6 12.2 244 13.4
2006-02-24 08:17:48 51°12.179 2°48.124 249.2 12 243 13.4
2006-02-24 08:18:48 51°12.087 2°47.836 245.3 12.1 238 13.4
2006-02-24 08:19:48 51°11.994 2°47.546 247.3 12.3 242 13.5
2006-02-24 08:20:48 51°11.9 2°47.257 244.5 12.5 241 13.5
2006-02-24 08:21:48 51°11.808 2°46.966 246 12.3 242 13.4
2006-02-24 08:22:48 51°11.714 2°46.678 246 12.4 244 13.4
2006-02-24 08:23:48 51°11.621 2°46.39 246 12.2 243 13.5
2006-02-24 08:24:48 51°11.529 2°46.095 246 12.4 246 13.3
2006-02-24 08:25:48 51°11.438 2°45.8 246.2 12.5 243 13.1
2006-02-24 08:26:48 51°11.346 2°45.505 244.6 12.6 240 13
2006-02-24 08:27:48 51°11.253 2°45.213 246.5 12.3 244 12.8
2006-02-24 08:28:48 51°11.162 2°44.92 247.1 12.5 245 12.6
2006-02-24 08:29:48 51°11.087 2°44.613 249.8 12.3 249 12.6
2006-02-24 08:30:48 51°11.01 2°44.309 251.1 12.4 246 12.6
2006-02-24 08:31:48 51°10.933 2°44.002 247.9 12.5 247 12.4
2006-02-24 08:32:48 51°10.851 2°43.703 246.9 12.6 244 12.4
2006-02-24 08:33:48 51°10.773 2°43.402 248.1 12.2 246 12.3
2006-02-24 08:34:48 51°10.689 2°43.105 248.9 12.5 245 12.1
2006-02-24 08:35:48 51°10.61 2°42.8 250.3 12.2 247 12
2006-02-24 08:36:48 51°10.535 2°42.498 251.4 12.1 250 12
2006-02-24 08:37:48 51°10.454 2°42.199 251.1 12.3 250 11.9
2006-02-24 08:38:48 51°10.376 2°41.9 248.5 12.2 243 11.9
2006-02-24 08:39:48 51°10.298 2°41.604 249.6 11.9 249 12
2006-02-24 08:40:48 51°10.218 2°41.307 250.8 12 252 12
2006-02-24 08:41:48 51°10.136 2°41.017 249.1 12 252 12
2006-02-24 08:42:48 51°10.063 2°40.717 250.4 12.4 250 12.1
2006-02-24 08:43:48 51°9.996 2°40.409 249.1 12.4 246 12.2
2006-02-24 08:44:48 51°9.926 2°40.104 253.5 12.3 252 12.3
2006-02-24 08:45:48 51°9.857 2°39.803 252.5 12.1 249 12.3
2006-02-24 08:46:48 51°9.79 2°39.497 251.6 12.3 250 12.5
2006-02-24 08:47:48 51°9.722 2°39.189 253.3 12.2 248 12.6
2006-02-24 08:48:48 51°9.649 2°38.891 249.4 12 246 12.8
2006-02-24 08:49:48 51°9.576 2°38.594 249 12 245 12.9
2006-02-24 08:50:48 51°9.507 2°38.289 252.4 12.3 247 12.9
2006-02-24 08:51:48 51°9.438 2°37.985 251.6 12.4 251 13.1
2006-02-24 08:52:48 51°9.371 2°37.68 252.5 12.2 250 13.2
2006-02-24 08:53:48 51°9.306 2°37.371 253.3 12.2 250 13.4
2006-02-24 08:54:48 51°9.242 2°37.064 251.9 12 248 13.8
2006-02-24 08:55:48 51°9.176 2°36.761 252.7 12.2 252 14.2
2006-02-24 08:56:48 51°9.108 2°36.46 251.6 11.9 245 14.6
2006-02-24 08:57:48 51°9.044 2°36.154 253.9 12.1 253 15.5
2006-02-24 08:58:48 51°8.976 2°35.853 253 12.1 251 16.2
2006-02-24 08:59:48 51°8.911 2°35.552 250.7 12 249 16.9
2006-02-24 09:00:48 51°8.848 2°35.247 251.8 12.3 250 17.7
2006-02-24 09:01:48 51°8.783 2°34.942 251.8 12.2 253 18.2
2006-02-24 09:02:48 51°8.714 2°34.64 250.4 12.2 252 18.5
2006-02-24 09:03:48 51°8.635 2°34.345 242.5 12.3 241 18.8
2006-02-24 09:04:48 51°8.526 2°34.073 240 12.1 234 18.7
2006-02-24 09:05:48 51°8.421 2°33.799 241.7 11.8 239 18.7
2006-02-24 09:06:48 51°8.312 2°33.525 237.5 12.4 236 18.6
2006-02-24 09:07:48 51°8.203 2°33.253 239 12.1 236 18.3
2006-02-24 09:08:48 51°8.088 2°32.985 237.6 12.2 237 17.9
2006-02-24 09:09:48 51°7.974 2°32.719 238.7 12.3 237 17
2006-02-24 09:10:48 51°7.861 2°32.451 240.2 12.1 238 16.7
2006-02-24 09:11:48 51°7.752 2°32.181 238.6 12.3 234 15.9
2006-02-24 09:12:48 51°7.641 2°31.91 238.4 12.1 232 15
2006-02-24 09:13:48 51°7.529 2°31.639 240 12.3 236 14.1
2006-02-24 09:14:48 51°7.419 2°31.363 239.5 12.4 236 13.8
2006-02-24 09:15:48 51°7.307 2°31.086 239.4 12.4 235 13.6
2006-02-24 09:16:48 51°7.191 2°30.804 238.9 12.8 237 13.2
2006-02-24 09:17:48 51°7.075 2°30.53 238.9 12.5 235 12.8
2006-02-24 09:18:48 51°7.033 2°30.222 281.2 12.4 281 12.2
2006-02-24 09:19:48 51°7.185 2°30.023 349.8 12.7 351 18
2006-02-24 09:20:48 51°7.376 2°30.161 46.1 13.4 43 19.8
2006-02-24 09:21:48 51°7.542 2°30.407 49.6 13.8 45 22.3
2006-02-24 09:22:48 51°7.704 2°30.661 49.6 13.7 45 22.8
2006-02-24 09:23:48 51°7.867 2°30.913 49 13.7 44 22.7
2006-02-24 09:24:48 51°8.03 2°31.164 48.9 13.6 43 21.1
2006-02-24 09:25:48 51°8.193 2°31.417 50 13.7 44 20.1
2006-02-24 09:26:48 51°8.356 2°31.673 51.5 13.6 45 19.8
2006-02-24 09:27:48 51°8.516 2°31.934 53.4 13.8 47 19.9
2006-02-24 09:28:48 51°8.671 2°32.199 53.2 13.6 46 20.2
2006-02-24 09:29:48 51°8.825 2°32.457 53 13.4 46 20.1
2006-02-24 09:30:48 51°8.978 2°32.715 52.8 13.4 46 19.4
2006-02-24 09:31:48 51°9.131 2°32.972 54 13.3 47 17.6
2006-02-24 09:32:48 51°9.282 2°33.229 53.5 13.2 47 15.7
2006-02-24 09:33:48 51°9.434 2°33.486 53.9 13.3 47 14.1
2006-02-24 09:34:48 51°9.586 2°33.744 53.2 13.4 47 13
2006-02-24 09:35:48 51°9.739 2°34.002 53.8 13.4 47 12.5
2006-02-24 09:36:48 51°9.891 2°34.257 53.6 13.3 47 12.5
2006-02-24 09:37:48 51°10.043 2°34.51 53.9 13.3 47 12.4
2006-02-24 09:38:48 51°10.197 2°34.764 53.2 13.2 47 12.5
2006-02-24 09:39:48 51°10.35 2°35.02 53.5 13.3 46 11.6
2006-02-24 09:40:48 51°10.503 2°35.271 52.9 13.1 45 11.4
2006-02-24 09:41:48 51°10.654 2°35.519 52.1 13 44 11.6
2006-02-24 09:42:48 51°10.825 2°35.734 44.6 13.1 38 11.9
2006-02-24 09:43:48 51°10.998 2°35.95 45.1 13.2 38 12.1
2006-02-24 09:44:48 51°11.171 2°36.166 45.5 13.3 38 12.3
2006-02-24 09:45:48 51°11.343 2°36.38 43.9 13.2 37 12.9
2006-02-24 09:46:48 51°11.519 2°36.591 44.3 13.1 37 12.8
2006-02-24 09:47:48 51°11.694 2°36.801 42.3 13.1 36 12.7
2006-02-24 09:48:48 51°11.873 2°37.001 41.6 13.2 35 13.1
2006-02-24 09:49:48 51°12.051 2°37.202 42.4 13.2 36 13.1
2006-02-24 09:50:48 51°12.228 2°37.404 40.9 13.1 34 13.4
2006-02-24 09:51:48 51°12.407 2°37.601 40.7 13.1 34 13.4
2006-02-24 09:52:48 51°12.588 2°37.797 40.5 13.2 34 14.1
2006-02-24 09:53:48 51°12.769 2°37.998 41.2 13.2 34 14.7
2006-02-24 09:54:48 51°12.95 2°38.194 41.3 13.2 35 15.3
2006-02-24 09:55:48 51°13.129 2°38.393 41.8 13.1 35 15.6
2006-02-24 09:56:48 51°13.311 2°38.59 40.7 13.2 35 15.9
2006-02-24 09:57:48 51°13.488 2°38.79 40.8 13 34 15.9
2006-02-24 09:58:48 51°13.69 2°38.92 23.2 13.1 18 16
2006-02-24 09:59:48 51°13.899 2°39.033 24.1 13.3 18 15.7
2006-02-24 10:00:48 51°14.108 2°39.146 24.4 13.3 19 14.4
2006-02-24 10:01:48 51°14.319 2°39.264 25.6 13.6 20 14.6
2006-02-24 10:02:48 51°14.528 2°39.385 24.6 13.2 19 15.4
2006-02-24 10:03:48 51°14.736 2°39.503 24.4 13.3 20 17.4
2006-02-24 10:04:48 51°14.943 2°39.627 25.5 13.3 21 16.3
2006-02-24 10:05:48 51°15.152 2°39.75 25.2 13.3 20 17.8
2006-02-24 10:06:48 51°15.358 2°39.877 26.1 13.3 21 18.5
2006-02-24 10:07:48 51°15.567 2°40.003 26.1 13.3 21 19.6
2006-02-24 10:08:48 51°15.774 2°40.129 26 13.5 21 20.4
2006-02-24 10:09:48 51°15.981 2°40.259 26.1 13.3 21 21.2
2006-02-24 10:10:48 51°16.187 2°40.388 27 13.4 21 22.1
2006-02-24 10:11:48 51°16.392 2°40.516 26.3 13.4 21 23
2006-02-24 10:12:48 51°16.6 2°40.642 26.2 13.1 21 23.9
2006-02-24 10:13:48 51°16.804 2°40.769 26.8 12.8 21 24
2006-02-24 10:14:48 51°17.006 2°40.89 26.1 12.8 20 24.6
2006-02-24 10:15:48 51°17.212 2°41.017 27 13.2 22 24.7
2006-02-24 10:16:48 51°17.419 2°41.145 26.1 13.5 22 24.9
2006-02-24 10:17:48 51°17.568 2°41.383 67.4 12.9 63 24.9
2006-02-24 10:18:49 51°17.611 2°41.72 92.3 12.8 87 25.4
2006-02-24 10:19:48 51°17.626 2°42.056 92 12.8 88 25.1
2006-02-24 10:20:48 51°17.641 2°42.4 91.4 13.1 85 24.6
2006-02-24 10:21:49 51°17.656 2°42.751 91.4 13.1 86 22.7
2006-02-24 10:22:48 51°17.666 2°43.088 92.6 12.9 88 13.7
2006-02-24 10:23:49 51°17.675 2°43.432 92.1 12.8 88 12.9
2006-02-24 10:24:48 51°17.679 2°43.761 97.1 12.3 96 14.5
2006-02-24 10:25:48 51°17.598 2°44.05 135.4 12.1 132 18.4
2006-02-24 10:26:48 51°17.413 2°44.155 178.3 12.4 180 18.1
2006-02-24 10:27:48 51°17.212 2°44.118 190.8 12.1 185 17
2006-02-24 10:28:48 51°17.012 2°44.047 196.8 12 194 16.9
2006-02-24 10:29:48 51°16.817 2°43.97 195.7 11.5 192 16.4
2006-02-24 10:30:48 51°16.617 2°43.905 193.2 11.8 192 16.1
2006-02-24 10:31:48 51°16.42 2°43.829 194.9 11.8 195 15.6
2006-02-24 10:32:48 51°16.222 2°43.764 192.3 12 191 14.7
2006-02-24 10:33:48 51°16.028 2°43.682 199.2 11.8 197 13.5
2006-02-24 10:34:49 51°15.831 2°43.604 196.7 11.7 195 13
2006-02-24 10:35:48 51°15.64 2°43.537 194.6 11.9 191 12.9
2006-02-24 10:36:48 51°15.445 2°43.471 196.4 12.2 193 14.6
2006-02-24 10:37:48 51°15.245 2°43.405 194.2 12.1 189 14
2006-02-24 10:38:48 51°15.046 2°43.343 197.5 12.1 197 15.4
2006-02-24 10:39:48 51°14.847 2°43.276 199 12.5 195 18.8
2006-02-24 10:40:48 51°14.646 2°43.214 192.7 12.5 186 19.2
2006-02-24 10:41:48 51°14.446 2°43.143 196.2 12.6 195 18.3
2006-02-24 10:42:48 51°14.248 2°43.071 194.6 11.9 189 17.5
2006-02-24 10:43:49 51°14.046 2°42.995 197.4 12.5 196 16.6
2006-02-24 10:44:48 51°13.852 2°43.026 161.9 12.1 158 15
2006-02-24 10:45:48 51°13.75 2°43.287 105.9 12.2 97 13.3
2006-02-24 10:46:48 51°13.751 2°43.62 94.6 12.6 90 11.8
2006-02-24 10:47:48 51°13.748 2°43.955 95 12.4 90 9.7
2006-02-24 10:48:48 51°13.743 2°44.291 95.8 12.8 90 10.7
2006-02-24 10:49:48 51°13.741 2°44.631 95.8 12.8 89 12.4
2006-02-24 10:50:48 51°13.779 2°44.962 77.1 12.8 71 12.5
2006-02-24 10:51:49 51°13.863 2°45.281 71.1 13 66 12.5
2006-02-24 10:52:48 51°13.952 2°45.588 72.1 13 66 12.2
2006-02-24 10:53:49 51°14.043 2°45.906 72 13 66 12.1
2006-02-24 10:54:48 51°14.134 2°46.216 71.6 13.2 65 11.9
2006-02-24 10:55:49 51°14.227 2°46.536 71.5 13.1 65 11.7
2006-02-24 10:56:48 51°14.314 2°46.846 71.1 13 65 11.4
2006-02-24 10:57:48 51°14.435 2°47.114 40.9 12.6 30 11.7
2006-02-24 10:58:48 51°14.64 2°47.125 354.1 12.9 350 13.9
2006-02-24 10:59:48 51°14.842 2°47.002 340.4 13.2 336 12.6
2006-02-24 11:00:48 51°15.041 2°46.862 340.2 13.1 337 10.4
2006-02-24 11:01:48 51°15.241 2°46.721 340 13.3 336 12.8
2006-02-24 11:02:49 51°15.448 2°46.579 341 13.4 338 15.7
2006-02-24 11:03:48 51°15.644 2°46.443 340 13 336 17.8
2006-02-24 11:04:48 51°15.843 2°46.309 341.2 13.1 337 17.4
2006-02-24 11:05:48 51°16.043 2°46.172 339.6 13.2 337 14.3
2006-02-24 11:06:48 51°16.243 2°46.037 340 12.9 336 11.2
2006-02-24 11:07:48 51°16.444 2°45.898 339.6 13.2 337 11.4
2006-02-24 11:08:48 51°16.647 2°45.76 339.6 13.3 337 12
2006-02-24 11:09:48 51°16.853 2°45.618 340.7 13.4 338 13.1
2006-02-24 11:10:48 51°17.055 2°45.476 338.9 13.3 335 13.9
2006-02-24 11:11:49 51°17.259 2°45.327 340 13.1 336 15.1
2006-02-24 11:12:48 51°17.457 2°45.185 340 13.4 335 17.3
2006-02-24 11:13:48 51°17.658 2°45.046 340.7 13.2 337 18.2
2006-02-24 11:14:48 51°17.864 2°44.913 346.4 13.2 345 19.3
2006-02-24 11:15:48 51°18.065 2°44.979 39.6 12.4 38 20.2
2006-02-24 11:16:48 51°18.189 2°45.248 59.6 12.8 53 20.7
2006-02-24 11:17:48 51°18.314 2°45.524 60.1 12.8 54 21.1
2006-02-24 11:18:49 51°18.44 2°45.805 61 12.7 55 21.2
2006-02-24 11:19:48 51°18.561 2°46.073 60.5 12.8 54 21.4
2006-02-24 11:20:48 51°18.678 2°46.353 63.3 12.7 56 21.3
2006-02-24 11:21:48 51°18.793 2°46.636 63.7 12.8 57 21.3
2006-02-24 11:22:48 51°18.906 2°46.921 66.7 12.9 60 21.5
2006-02-24 11:23:48 51°19.01 2°47.216 66.8 12.7 60 20.9
2006-02-24 11:24:48 51°19.115 2°47.509 66.8 12.8 59 20.9
2006-02-24 11:25:48 51°19.218 2°47.802 67.3 12.6 60 20.6
2006-02-24 11:26:48 51°19.32 2°48.092 67 12.6 59 19.9
2006-02-24 11:27:49 51°19.398 2°48.408 83 12.4 82 19.1
2006-02-24 11:28:48 51°19.326 2°48.7 123.9 12.2 120 17.3
2006-02-24 11:29:49 51°19.233 2°48.996 121.2 12.1 118 15.4
2006-02-24 11:30:48 51°19.132 2°49.268 127.1 12.3 120 13.7
2006-02-24 11:31:48 51°19.011 2°49.529 134.6 12.3 127 12.3
2006-02-24 11:32:48 51°18.881 2°49.775 133.5 12.4 128 11.9
2006-02-24 11:33:48 51°18.75 2°50.022 134.1 12.4 131 13.7
2006-02-24 11:34:48 51°18.623 2°50.275 133.4 12.5 125 14.9
2006-02-24 11:35:48 51°18.493 2°50.526 134.4 12.4 134 15.1
2006-02-24 11:36:48 51°18.366 2°50.781 132.8 12.5 124 14.6
2006-02-24 11:37:48 51°18.236 2°51.036 133.8 12.7 127 13.5
2006-02-24 11:38:48 51°18.107 2°51.291 135 12.7 128 12.6
2006-02-24 11:39:48 51°17.978 2°51.544 132.4 12.4 124 11.4
2006-02-24 11:40:48 51°17.842 2°51.789 140 12.4 138 10.9
2006-02-24 11:41:49 51°17.688 2°52.011 144.7 12.1 144 11
2006-02-24 11:42:48 51°17.523 2°52.194 148.6 11.9 147 11.2
2006-02-24 11:43:48 51°17.346 2°52.368 155.6 13.3 151 10.9
2006-02-24 11:44:48 51°17.163 2°52.522 155.3 12.4 156 10.5
2006-02-24 11:45:48 51°16.98 2°52.676 156.5 13.2 150 10.3
2006-02-24 11:46:48 51°16.799 2°52.831 153.8 12.3 152 10.1
2006-02-24 11:47:48 51°16.613 2°52.984 156.2 13 153 11.9
2006-02-24 11:48:48 51°16.428 2°53.139 154.4 11.9 153 12.6
2006-02-24 11:49:48 51°16.241 2°53.29 155.3 12.3 154 12.3
2006-02-24 11:50:48 51°16.055 2°53.443 156.1 12.9 153 12.1
2006-02-24 11:51:48 51°15.869 2°53.599 154.2 12 154 11.5
2006-02-24 11:52:48 51°15.68 2°53.751 155.8 12.6 153 11
2006-02-24 11:53:48 51°15.495 2°53.907 151.9 12.2 148 10.7
2006-02-24 11:54:48 51°15.338 2°54.024 155.9 8.1 155 10.4
2006-02-24 11:55:49 51°15.178 2°54.129 159 11.7 156 9.5
2006-02-24 11:56:48 51°15.001 2°54.263 156.8 11.8 155 9.1
2006-02-24 11:57:49 51°14.817 2°54.409 155.8 12.1 152 9.8
2006-02-24 11:58:48 51°14.65 2°54.581 147.6 12.2 145 10
2006-02-24 11:59:48 51°14.496 2°54.782 137.7 11.9 136 10.1
2006-02-24 12:00:48 51°14.369 2°55.027 126.8 11.8 124 10.5
2006-02-24 12:01:49 51°14.253 2°55.266 134.4 10.5 133 -999
2006-02-24 12:02:49 51°14.141 2°55.398 157.4 7.1 155 -999
2006-02-24 12:03:51 51°14.036 2°55.473 157.1 7 156 11.5
2006-02-24 12:04:52 51°13.924 2°55.555 157.3 7.1 156 -999
2006-02-24 12:05:52 51°13.827 2°55.633 154.3 5.9 151 -999
2006-02-24 12:06:52 51°13.759 2°55.702 143.2 4.4 144 -999
2006-02-24 12:07:52 51°13.711 2°55.778 131.3 3.9 131 -999
2006-02-24 12:08:52 51°13.672 2°55.855 126.2 3.6 124 -999
2006-02-24 12:09:52 51°13.643 2°55.937 119.4 3.3 119 -999
2006-02-24 12:10:52 51°13.622 2°56.008 113.5 2.6 112 -999
2006-02-24 12:11:52 51°13.607 2°56.064 118 1.9 118 -999
2006-02-24 12:12:52 51°13.602 2°56.076 122.3 0.6 111 -999
2006-02-24 12:13:52 51°13.597 2°56.087 118.6 0.3 98 -999